Weather & Traffic



KLGB 280053Z 30013KT 10SM CLR 27/06 A2999 RMK AO2 SLP153 T02670061


TAF KLGB 271730Z 2718/2818 VRB03KT P6SM SKC FM271900 19007KT P6SM SKC FM272300 29010KT P6SM SKC FM280400 VRB03KT P6SM SKC FM281100 VRB03KT 2SM BR OVC002 FM281600 VRB03KT 5SM HZ SCT004